Time;durP1;ratioP1;P1;durP2;ratioP2;P2;SDS_P1;SDS_P2;PMS_P1;PMS_P2;Temp;Humidity;BMP_temperature;BMP_pressure;BME280_temperature;BME280_humidity;BME280_pressure;Samples;Min_cycle;Max_cycle;Signal;HPM_P1;HPM_P2
2023/09/08 00:01:02;;;;;;;35.27;33.57;;;25.90;86.80;;;;;;5050412;28;20491;-54
2023/09/08 00:03:29;;;;;;;36.23;34.43;;;25.90;86.80;;;;;;5049868;28;20472;-57
2023/09/08 00:05:56;;;;;;;36.53;34.83;;;25.90;86.80;;;;;;5050250;28;20476;-56
2023/09/08 00:08:23;;;;;;;37.10;35.20;;;25.90;86.90;;;;;;5050596;28;20906;-56
2023/09/08 00:10:50;;;;;;;36.00;34.20;;;25.90;86.90;;;;;;5050781;28;20448;-53
2023/09/08 00:13:19;;;;;;;37.33;35.33;;;25.90;87.00;;;;;;5053996;28;20476;-53
2023/09/08 00:15:45;;;;;;;35.83;33.97;;;25.90;87.00;;;;;;5050264;28;20495;-50
2023/09/08 00:18:12;;;;;;;35.53;33.73;;;25.90;87.00;;;;;;5054005;28;20496;-54
2023/09/08 00:20:41;;;;;;;36.27;34.23;;;25.90;87.10;;;;;;5054244;28;20471;-49
2023/09/08 00:23:08;;;;;;;35.80;33.90;;;25.90;87.30;;;;;;5053086;28;20459;-54
2023/09/08 00:25:35;;;;;;;35.50;33.60;;;25.80;87.40;;;;;;5054034;28;20480;-48
2023/09/08 00:28:03;;;;;;;36.03;34.17;;;25.80;87.50;;;;;;5053967;28;20472;-51
2023/09/08 00:30:31;;;;;;;35.63;33.83;;;25.80;87.60;;;;;;5054493;28;20510;-50
2023/09/08 00:32:58;;;;;;;36.40;34.40;;;25.80;87.70;;;;;;5049490;28;20918;-49
2023/09/08 00:35:25;;;;;;;37.27;35.47;;;25.80;87.70;;;;;;5054382;28;20483;-51
2023/09/08 00:37:52;;;;;;;35.00;33.20;;;25.80;87.90;;;;;;5054179;28;20496;-51
2023/09/08 00:40:19;;;;;;;35.60;33.80;;;25.80;87.80;;;;;;5053898;28;20578;-53
2023/09/08 00:42:46;;;;;;;36.77;34.87;;;25.70;87.70;;;;;;5053680;28;20951;-52
2023/09/08 00:45:13;;;;;;;36.53;34.67;;;25.70;87.70;;;;;;5053539;28;20450;-51
2023/09/08 00:47:42;;;;;;;35.30;33.53;;;25.70;87.80;;;;;;5053686;28;20502;-53
2023/09/08 00:50:09;;;;;;;35.27;33.47;;;25.70;87.70;;;;;;5054453;28;20478;-51
2023/09/08 00:52:36;;;;;;;37.57;35.50;;;25.70;87.80;;;;;;5053588;28;20511;-48
2023/09/08 00:55:04;;;;;;;36.40;34.60;;;25.70;88.00;;;;;;5053564;28;20499;-54
2023/09/08 00:57:31;;;;;;;36.20;34.40;;;25.70;88.00;;;;;;5053419;28;20496;-50
2023/09/08 00:59:59;;;;;;;35.27;33.57;;;25.70;88.20;;;;;;5053701;28;20488;-50
2023/09/08 01:02:25;;;;;;;35.83;33.93;;;25.70;88.50;;;;;;5050757;28;20468;-52
2023/09/08 01:04:54;;;;;;;35.80;34.00;;;25.70;88.70;;;;;;5050221;28;20456;-51
2023/09/08 01:07:21;;;;;;;35.97;34.07;;;25.70;88.90;;;;;;5053835;28;20906;-50
2023/09/08 01:09:49;;;;;;;36.30;34.50;;;25.60;89.00;;;;;;5053235;28;20475;-49
2023/09/08 01:12:16;;;;;;;36.13;34.33;;;25.70;89.20;;;;;;5044736;28;20491;-49
2023/09/08 01:14:43;;;;;;;37.00;34.80;;;25.60;89.40;;;;;;5053128;28;20972;-48
2023/09/08 01:17:12;;;;;;;35.70;33.70;;;25.60;89.60;;;;;;5052849;28;20480;-52
2023/09/08 01:19:39;;;;;;;36.50;34.60;;;25.60;89.80;;;;;;5054041;28;20436;-50
2023/09/08 01:22:54;;;;;;;37.60;35.60;;;25.70;90.00;;;;;;5050590;28;20543;-50
2023/09/08 01:25:22;;;;;;;36.33;34.53;;;25.70;90.10;;;;;;5024791;28;20955;-53
2023/09/08 01:27:52;;;;;;;37.83;35.93;;;25.60;90.10;;;;;;5052804;28;20492;-51
2023/09/08 01:30:20;;;;;;;36.90;35.00;;;25.60;90.20;;;;;;5045230;28;20482;-53
2023/09/08 01:32:47;;;;;;;37.50;35.70;;;25.60;90.30;;;;;;5046762;28;21018;-51
2023/09/08 01:35:14;;;;;;;36.57;34.77;;;25.60;90.30;;;;;;5050928;28;20892;-52
2023/09/08 01:37:42;;;;;;;38.53;36.63;;;25.60;90.40;;;;;;5050589;28;20488;-52
2023/09/08 01:40:11;;;;;;;36.40;34.50;;;25.60;90.40;;;;;;5047776;28;20456;-48
2023/09/08 01:42:40;;;;;;;36.63;34.73;;;25.60;90.50;;;;;;5052338;28;20448;-48
2023/09/08 01:45:08;;;;;;;37.40;35.60;;;25.60;90.50;;;;;;5049274;28;20491;-49
2023/09/08 01:47:35;;;;;;;38.23;36.23;;;25.60;90.50;;;;;;5052699;28;20523;-50
2023/09/08 01:50:02;;;;;;;35.50;33.70;;;25.60;90.50;;;;;;5051915;28;20495;-54
2023/09/08 01:52:29;;;;;;;36.17;34.37;;;25.60;90.50;;;;;;5049098;28;20484;-48
2023/09/08 01:54:56;;;;;;;36.73;34.77;;;25.50;90.50;;;;;;5045186;28;20489;-52
2023/09/08 01:57:23;;;;;;;38.43;36.43;;;25.50;90.50;;;;;;5052350;28;20543;-51
2023/09/08 01:59:51;;;;;;;36.83;35.03;;;25.60;90.60;;;;;;5046958;28;20877;-50
2023/09/08 02:02:18;;;;;;;37.97;35.83;;;25.50;90.60;;;;;;5049779;28;20480;-49
2023/09/08 02:04:46;;;;;;;38.87;36.97;;;25.50;90.60;;;;;;5052726;28;20464;-51
2023/09/08 02:07:12;;;;;;;41.03;39.03;;;25.50;90.50;;;;;;5051770;28;20963;-52
2023/09/08 02:09:39;;;;;;;37.33;35.33;;;25.50;90.50;;;;;;5052108;28;20924;-50
2023/09/08 02:12:07;;;;;;;37.87;35.87;;;25.50;90.50;;;;;;5051936;28;20479;-50
2023/09/08 02:14:34;;;;;;;37.80;35.90;;;25.50;90.50;;;;;;5048326;28;20503;-50
2023/09/08 02:17:02;;;;;;;38.50;36.60;;;25.50;90.40;;;;;;5051927;28;20476;-51
2023/09/08 02:19:29;;;;;;;37.77;35.80;;;25.50;90.40;;;;;;5076813;22;20502;-51
2023/09/08 02:21:56;;;;;;;37.13;35.20;;;25.50;90.40;;;;;;5031845;28;20883;-50
2023/09/08 02:24:23;;;;;;;36.67;34.87;;;25.50;90.40;;;;;;5031819;28;20469;-52
2023/09/08 02:26:50;;;;;;;40.00;38.00;;;25.50;90.50;;;;;;5031838;28;20955;-50
2023/09/08 02:29:17;;;;;;;36.60;34.80;;;25.40;90.40;;;;;;5031648;28;20831;-51
2023/09/08 02:31:44;;;;;;;38.53;36.63;;;25.40;90.40;;;;;;5031433;28;20473;-49
2023/09/08 02:34:13;;;;;;;37.87;35.77;;;25.40;90.40;;;;;;5031590;28;20500;-51
2023/09/08 02:36:40;;;;;;;37.70;35.80;;;25.40;90.50;;;;;;5031896;28;20492;-49
2023/09/08 02:39:07;;;;;;;35.90;34.10;;;25.40;90.50;;;;;;5031714;28;20501;-49
2023/09/08 02:41:34;;;;;;;37.97;35.87;;;25.40;90.50;;;;;;5031609;28;20455;-51
2023/09/08 02:44:01;;;;;;;37.17;35.37;;;25.40;90.60;;;;;;5031407;28;20455;-53
2023/09/08 02:46:28;;;;;;;37.43;35.37;;;25.40;90.60;;;;;;5031144;28;20457;-51
2023/09/08 02:48:55;;;;;;;36.97;35.07;;;25.40;90.60;;;;;;5031456;28;20504;-49
2023/09/08 02:51:23;;;;;;;37.57;35.67;;;25.40;90.70;;;;;;5031782;28;20481;-50
2023/09/08 02:53:50;;;;;;;36.23;34.33;;;25.40;90.70;;;;;;5030999;28;20927;-50
2023/09/08 02:56:17;;;;;;;35.47;33.50;;;25.40;90.70;;;;;;5031772;28;20437;-50
2023/09/08 02:58:44;;;;;;;36.80;34.97;;;25.40;90.80;;;;;;5031247;28;20500;-52
2023/09/08 03:01:14;;;;;;;38.73;36.40;;;25.40;90.80;;;;;;5031098;28;20449;-54
2023/09/08 03:03:41;;;;;;;39.27;37.27;;;25.40;90.90;;;;;;5031426;28;20794;-49
2023/09/08 03:06:08;;;;;;;38.00;35.70;;;25.40;91.00;;;;;;5031261;28;20480;-51
2023/09/08 03:08:37;;;;;;;39.93;37.73;;;25.40;91.00;;;;;;5030823;28;20499;-50
2023/09/08 03:11:05;;;;;;;40.80;38.63;;;25.40;91.00;;;;;;5030819;28;20445;-52
2023/09/08 03:13:34;;;;;;;36.23;34.33;;;25.40;91.40;;;;;;5031477;28;20477;-51
2023/09/08 03:16:05;;;;;;;38.33;36.20;;;25.30;90.90;;;;;;5031124;28;20987;-52
2023/09/08 03:18:32;;;;;;;38.17;36.07;;;25.30;90.90;;;;;;5030826;28;20987;-51
2023/09/08 03:21:00;;;;;;;37.80;35.60;;;25.30;90.90;;;;;;5031437;28;20536;-49
2023/09/08 03:23:27;;;;;;;36.87;34.87;;;25.30;90.90;;;;;;5031290;28;20445;-50
2023/09/08 03:25:55;;;;;;;38.37;36.37;;;25.30;90.80;;;;;;5031147;28;20481;-56
2023/09/08 03:28:22;;;;;;;44.23;41.83;;;25.30;90.90;;;;;;5023191;28;20504;-54
2023/09/08 03:30:49;;;;;;;42.77;40.60;;;25.30;90.90;;;;;;5030937;28;20477;-52
2023/09/08 03:33:16;;;;;;;43.27;41.17;;;25.30;90.90;;;;;;5030620;28;20489;-56
2023/09/08 03:35:43;;;;;;;41.37;39.27;;;25.30;91.00;;;;;;5030948;28;20484;-51
2023/09/08 03:38:10;;;;;;;42.50;40.30;;;25.30;91.00;;;;;;5030670;28;20507;-50
2023/09/08 03:40:37;;;;;;;43.20;41.10;;;25.30;91.10;;;;;;5030627;28;20473;-50
2023/09/08 03:43:06;;;;;;;42.77;40.57;;;25.20;91.00;;;;;;5030608;28;20441;-55
2023/09/08 03:45:32;;;;;;;41.80;39.43;;;25.20;91.10;;;;;;5030867;28;20875;-52
2023/09/08 03:47:59;;;;;;;42.23;39.97;;;25.20;91.00;;;;;;5034866;28;20511;-49
2023/09/08 03:50:27;;;;;;;40.93;38.83;;;25.20;91.10;;;;;;5035156;28;20483;-49
2023/09/08 03:52:54;;;;;;;38.47;36.47;;;25.20;91.10;;;;;;5034518;28;20488;-53
2023/09/08 03:55:21;;;;;;;40.70;38.60;;;25.20;91.10;;;;;;5034856;28;20487;-55
2023/09/08 03:57:48;;;;;;;43.50;41.30;;;25.20;91.10;;;;;;5034687;28;20488;-49
2023/09/08 04:00:22;;;;;;;42.80;40.47;;;25.20;91.20;;;;;;5034695;28;20480;-55
2023/09/08 04:02:49;;;;;;;43.07;40.77;;;25.20;91.20;;;;;;5034311;28;20480;-53
2023/09/08 04:05:17;;;;;;;42.60;40.40;;;25.20;91.20;;;;;;5034837;28;20442;-52
2023/09/08 04:07:44;;;;;;;41.67;39.47;;;25.20;91.20;;;;;;5029269;28;20481;-49
2023/09/08 04:10:11;;;;;;;44.93;42.63;;;25.20;91.20;;;;;;5034679;28;20480;-54
2023/09/08 04:12:37;;;;;;;42.87;40.67;;;25.20;91.20;;;;;;5034404;28;20492;-51
2023/09/08 04:15:06;;;;;;;43.93;41.57;;;25.20;91.20;;;;;;5034675;28;20511;-50
2023/09/08 04:17:35;;;;;;;42.40;40.10;;;25.20;91.30;;;;;;5034578;28;20452;-51
2023/09/08 04:20:04;;;;;;;44.00;41.53;;;25.20;91.30;;;;;;5034553;28;20544;-53
2023/09/08 04:22:31;;;;;;;41.90;39.50;;;25.20;91.30;;;;;;5034309;28;20563;-57
2023/09/08 04:24:58;;;;;;;41.10;38.87;;;25.20;91.40;;;;;;5034265;28;20479;-49
2023/09/08 04:27:25;;;;;;;43.67;41.37;;;25.20;91.40;;;;;;5034423;28;20437;-50
2023/09/08 04:29:52;;;;;;;43.03;40.83;;;25.20;91.40;;;;;;5034420;28;20500;-52
2023/09/08 04:32:19;;;;;;;41.10;38.90;;;25.20;91.40;;;;;;5033775;28;20476;-54
2023/09/08 04:34:48;;;;;;;42.60;40.33;;;25.20;91.40;;;;;;5034004;28;20923;-50
2023/09/08 04:37:15;;;;;;;41.83;39.30;;;25.20;91.70;;;;;;5034332;28;20456;-55
2023/09/08 04:39:43;;;;;;;43.10;39.80;;;25.20;92.30;;;;;;5033844;28;20971;-49
2023/09/08 04:42:10;;;;;;;42.13;39.13;;;25.20;92.20;;;;;;5033215;28;20461;-54
2023/09/08 04:44:37;;;;;;;43.17;40.57;;;25.20;92.30;;;;;;5033463;28;20882;-49
2023/09/08 04:47:05;;;;;;;41.60;38.90;;;25.20;92.40;;;;;;5034201;28;20476;-52
2023/09/08 04:49:32;;;;;;;39.40;37.07;;;25.20;93.00;;;;;;5033706;28;20496;-51
2023/09/08 04:52:00;;;;;;;38.97;36.90;;;25.20;93.70;;;;;;5033019;28;20498;-55
2023/09/08 04:54:27;;;;;;;41.50;38.87;;;25.20;94.40;;;;;;5033536;28;20501;-51
2023/09/08 04:56:54;;;;;;;40.27;38.17;;;25.20;94.40;;;;;;5033685;28;20467;-52
2023/09/08 04:59:22;;;;;;;39.30;37.20;;;25.20;94.20;;;;;;5033046;28;20453;-51
2023/09/08 05:01:49;;;;;;;39.30;37.30;;;25.20;94.10;;;;;;5033795;28;20481;-54
2023/09/08 05:04:17;;;;;;;39.83;37.63;;;25.20;93.90;;;;;;5033758;28;20446;-56
2023/09/08 05:06:44;;;;;;;38.87;36.60;;;25.20;93.70;;;;;;5033673;28;20469;-53
2023/09/08 05:09:13;;;;;;;40.83;38.70;;;25.20;93.60;;;;;;5033576;28;20496;-55
2023/09/08 05:11:40;;;;;;;40.70;38.40;;;25.20;93.50;;;;;;5033723;28;20548;-53
2023/09/08 05:14:06;;;;;;;41.77;39.77;;;25.20;93.40;;;;;;5033440;28;20515;-53
2023/09/08 05:16:46;;;;;;;42.43;39.93;;;25.20;93.40;;;;;;5033568;28;20499;-54
2023/09/08 05:19:13;;;;;;;41.00;38.80;;;25.20;93.20;;;;;;5033330;28;20504;-54
2023/09/08 05:21:41;;;;;;;40.27;37.90;;;25.20;93.10;;;;;;5033269;28;20441;-57
2023/09/08 05:24:08;;;;;;;43.60;41.40;;;25.10;92.90;;;;;;5033344;28;20473;-52
2023/09/08 05:26:39;;;;;;;41.33;38.73;;;25.20;92.90;;;;;;5033410;28;20473;-56
2023/09/08 05:29:06;;;;;;;40.00;37.70;;;25.20;92.80;;;;;;5033148;28;20465;-52
2023/09/08 05:31:33;;;;;;;40.40;38.20;;;25.20;92.70;;;;;;5033340;28;20448;-50
2023/09/08 05:34:00;;;;;;;42.27;39.87;;;25.10;92.70;;;;;;5033069;28;20527;-53
2023/09/08 05:36:29;;;;;;;41.10;38.90;;;25.20;92.60;;;;;;5033180;28;20548;-53
2023/09/08 05:38:56;;;;;;;38.93;37.03;;;25.10;92.60;;;;;;5033115;28;20522;-52
2023/09/08 05:41:23;;;;;;;41.03;38.93;;;25.10;92.50;;;;;;5032786;28;20882;-55
2023/09/08 05:43:51;;;;;;;40.50;38.50;;;25.10;92.50;;;;;;5033090;28;20476;-52
2023/09/08 05:46:18;;;;;;;42.50;40.10;;;25.10;92.40;;;;;;5032885;28;20477;-58
2023/09/08 05:48:45;;;;;;;41.10;39.10;;;25.10;92.40;;;;;;5032960;28;20493;-55
2023/09/08 05:51:12;;;;;;;43.20;41.00;;;25.10;92.40;;;;;;5032618;28;20475;-55
2023/09/08 05:53:40;;;;;;;41.80;39.70;;;25.10;92.40;;;;;;5032906;28;20549;-53
2023/09/08 05:56:07;;;;;;;43.43;41.10;;;25.10;92.40;;;;;;5032633;28;20488;-57
2023/09/08 05:58:34;;;;;;;42.03;39.93;;;25.10;92.30;;;;;;5032803;28;20470;-53
2023/09/08 06:01:03;;;;;;;41.53;39.63;;;25.10;92.30;;;;;;5032758;28;20481;-52
2023/09/08 06:03:30;;;;;;;45.43;43.33;;;25.10;92.30;;;;;;5032747;28;20472;-53
2023/09/08 06:05:57;;;;;;;45.53;43.33;;;25.10;92.30;;;;;;5032613;28;20499;-52
2023/09/08 06:08:24;;;;;;;44.83;42.33;;;25.10;92.20;;;;;;5032210;28;20881;-55
2023/09/08 06:10:51;;;;;;;44.80;42.60;;;25.10;92.20;;;;;;5032364;28;20438;-56
2023/09/08 06:13:18;;;;;;;44.47;42.30;;;25.10;92.20;;;;;;5032264;28;20473;-50
2023/09/08 06:15:45;;;;;;;46.40;44.00;;;25.10;92.20;;;;;;5032476;28;20513;-53
2023/09/08 06:18:13;;;;;;;44.07;42.07;;;25.10;92.20;;;;;;5032223;28;21006;-53
2023/09/08 06:20:45;;;;;;;41.83;39.83;;;25.10;92.20;;;;;;5032460;28;20520;-52
2023/09/08 06:23:12;;;;;;;42.10;40.03;;;25.10;92.20;;;;;;5032025;28;20520;-52
2023/09/08 06:25:39;;;;;;;43.47;40.93;;;25.10;92.20;;;;;;5032341;28;20866;-57
2023/09/08 06:28:06;;;;;;;42.00;40.00;;;25.10;92.20;;;;;;5032196;28;20507;-50
2023/09/08 06:30:33;;;;;;;44.57;42.37;;;25.10;92.10;;;;;;5032216;28;21006;-59
2023/09/08 06:33:00;;;;;;;42.73;40.63;;;25.10;92.20;;;;;;5032020;28;20857;-53
2023/09/08 06:35:28;;;;;;;41.07;39.00;;;25.10;92.20;;;;;;5032055;28;20531;-49
2023/09/08 06:37:57;;;;;;;42.20;40.00;;;25.10;92.20;;;;;;5031926;28;20504;-49
2023/09/08 06:40:24;;;;;;;46.67;44.37;;;25.10;92.20;;;;;;5031832;28;20473;-51
2023/09/08 06:42:51;;;;;;;43.90;41.90;;;25.10;92.30;;;;;;5031629;28;20971;-52
2023/09/08 06:45:18;;;;;;;42.50;40.47;;;25.00;92.20;;;;;;5031820;28;20472;-55
2023/09/08 06:47:45;;;;;;;43.87;41.57;;;25.10;92.20;;;;;;5031710;28;20437;-50
2023/09/08 06:50:12;;;;;;;43.10;40.83;;;25.10;92.20;;;;;;5031466;28;20476;-55
2023/09/08 06:52:40;;;;;;;44.03;41.83;;;25.10;92.20;;;;;;5031574;28;20549;-50
2023/09/08 06:55:09;;;;;;;41.67;39.47;;;25.10;92.20;;;;;;5031483;28;20562;-51
2023/09/08 06:57:36;;;;;;;41.80;39.80;;;25.00;92.20;;;;;;5031635;28;20960;-54
2023/09/08 07:00:07;;;;;;;44.27;42.17;;;25.10;92.20;;;;;;5031525;28;20476;-53
2023/09/08 07:02:34;;;;;;;45.23;43.03;;;25.10;92.10;;;;;;5031543;28;20552;-49
2023/09/08 07:05:06;;;;;;;45.67;43.47;;;25.10;92.10;;;;;;5031609;28;20516;-51
2023/09/08 07:07:33;;;;;;;44.13;41.37;;;25.10;92.10;;;;;;5024171;28;20452;-53
2023/09/08 07:10:01;;;;;;;43.17;40.97;;;25.10;92.20;;;;;;5031450;28;20473;-49
2023/09/08 07:12:28;;;;;;;42.40;40.37;;;25.10;92.10;;;;;;5023060;28;20452;-54
2023/09/08 07:14:55;;;;;;;44.10;41.90;;;25.10;92.20;;;;;;5031602;28;20515;-54
2023/09/08 07:17:23;;;;;;;42.00;39.83;;;25.10;92.10;;;;;;5031217;28;20477;-55
2023/09/08 07:19:49;;;;;;;41.40;39.37;;;25.10;92.20;;;;;;5031088;28;20505;-51
2023/09/08 07:22:16;;;;;;;44.53;42.33;;;25.10;92.10;;;;;;5030262;28;20477;-57
2023/09/08 07:24:44;;;;;;;45.80;43.40;;;25.10;92.10;;;;;;5031325;28;20504;-49
2023/09/08 07:27:13;;;;;;;41.67;39.27;;;25.10;92.10;;;;;;5031268;28;20451;-51
2023/09/08 07:29:40;;;;;;;44.03;41.90;;;25.10;92.10;;;;;;5031136;28;20803;-54
2023/09/08 07:32:08;;;;;;;42.20;40.30;;;25.10;92.10;;;;;;5030793;28;20879;-53
2023/09/08 07:34:35;;;;;;;48.37;46.07;;;25.10;92.10;;;;;;5031260;28;20542;-54
2023/09/08 07:37:02;;;;;;;46.27;43.97;;;25.10;92.10;;;;;;5031136;28;20484;-55
2023/09/08 07:39:30;;;;;;;44.83;42.63;;;25.10;92.00;;;;;;5022982;28;20496;-51
2023/09/08 07:41:57;;;;;;;45.77;43.57;;;25.10;92.10;;;;;;5030972;28;20477;-49
2023/09/08 07:44:25;;;;;;;45.63;43.53;;;25.10;92.10;;;;;;5031043;28;20437;-50
2023/09/08 07:46:52;;;;;;;47.03;44.83;;;25.10;92.00;;;;;;5031033;28;20504;-54
2023/09/08 07:49:20;;;;;;;48.63;46.23;;;25.10;92.10;;;;;;5030911;28;20493;-57
2023/09/08 07:51:46;;;;;;;45.70;43.50;;;25.10;92.10;;;;;;5030856;28;20805;-54
2023/09/08 07:54:14;;;;;;;43.17;40.87;;;25.10;92.10;;;;;;5030849;28;20530;-57
2023/09/08 07:56:41;;;;;;;43.03;40.87;;;25.10;92.10;;;;;;5030895;28;20515;-53
2023/09/08 07:59:08;;;;;;;45.37;43.07;;;25.10;92.10;;;;;;5030686;28;20465;-54
2023/09/08 08:01:36;;;;;;;41.73;39.73;;;25.10;92.10;;;;;;5030759;28;20500;-52
2023/09/08 08:04:03;;;;;;;43.40;41.10;;;25.10;92.00;;;;;;5030923;28;20479;-56
2023/09/08 08:06:30;;;;;;;42.63;40.43;;;25.10;92.00;;;;;;5022794;28;20811;-55
2023/09/08 08:08:57;;;;;;;45.13;42.93;;;25.10;92.00;;;;;;5030659;28;20465;-54
2023/09/08 08:11:25;;;;;;;45.53;43.20;;;25.10;92.10;;;;;;5030396;28;20880;-53
2023/09/08 08:13:52;;;;;;;44.57;42.37;;;25.10;92.00;;;;;;5030833;28;20449;-50
2023/09/08 08:16:20;;;;;;;42.67;40.27;;;25.10;92.10;;;;;;5030569;28;20515;-49
2023/09/08 08:18:48;;;;;;;44.00;41.90;;;25.10;92.10;;;;;;5030808;28;20479;-53
2023/09/08 08:21:15;;;;;;;41.87;39.77;;;25.10;92.10;;;;;;5030484;28;20472;-52
2023/09/08 08:23:42;;;;;;;41.70;39.50;;;25.10;92.20;;;;;;5030734;28;20531;-54
2023/09/08 08:26:09;;;;;;;43.43;41.33;;;25.10;92.10;;;;;;5030587;28;20473;-51
2023/09/08 08:28:36;;;;;;;43.50;41.40;;;25.10;92.10;;;;;;5030576;28;20907;-55
2023/09/08 08:31:03;;;;;;;41.47;39.47;;;25.10;92.10;;;;;;5030739;28;20481;-53
2023/09/08 08:33:30;;;;;;;41.83;39.83;;;25.10;92.10;;;;;;5033789;28;20520;-51
2023/09/08 08:35:58;;;;;;;45.30;43.10;;;25.10;92.00;;;;;;5034166;28;20565;-51
2023/09/08 08:38:25;;;;;;;46.50;44.20;;;25.20;92.00;;;;;;5034101;28;20506;-51
2023/09/08 08:40:52;;;;;;;43.03;41.03;;;25.20;92.00;;;;;;5034301;28;20469;-51
2023/09/08 08:43:19;;;;;;;43.03;41.13;;;25.10;91.90;;;;;;5034047;28;20479;-53
2023/09/08 08:45:48;;;;;;;44.70;42.50;;;25.10;91.90;;;;;;5034089;28;20487;-56
2023/09/08 08:48:16;;;;;;;45.87;43.57;;;25.20;92.00;;;;;;5033838;28;20507;-53
2023/09/08 08:50:44;;;;;;;42.30;40.30;;;25.20;92.00;;;;;;5033948;28;20449;-54
2023/09/08 08:53:13;;;;;;;42.60;40.50;;;25.10;91.90;;;;;;5033795;28;20469;-50
2023/09/08 08:55:41;;;;;;;41.77;39.57;;;25.20;91.90;;;;;;5033729;28;20481;-51
2023/09/08 08:58:08;;;;;;;42.13;40.03;;;25.20;92.00;;;;;;5033733;28;20492;-52
2023/09/08 09:00:37;;;;;;;44.50;42.30;;;25.20;92.00;;;;;;5033854;28;20512;-52
2023/09/08 09:03:05;;;;;;;45.10;43.00;;;25.20;91.90;;;;;;5033878;28;20477;-53
2023/09/08 09:05:33;;;;;;;44.37;42.27;;;25.20;91.90;;;;;;5025589;28;20473;-53
2023/09/08 09:08:03;;;;;;;41.53;39.63;;;25.20;91.90;;;;;;5033688;28;20968;-53
2023/09/08 09:10:31;;;;;;;43.70;41.60;;;25.20;91.90;;;;;;5033622;28;20532;-52
2023/09/08 09:12:58;;;;;;;45.23;43.23;;;25.20;91.90;;;;;;5033443;28;20969;-53
2023/09/08 09:15:32;;;;;;;41.77;39.47;;;25.20;92.00;;;;;;5033324;28;20999;-52
2023/09/08 09:18:04;;;;;;;42.53;40.53;;;25.20;92.00;;;;;;5033491;28;20464;-50
2023/09/08 09:20:31;;;;;;;42.20;40.23;;;25.20;92.00;;;;;;5033452;28;20799;-54
2023/09/08 09:22:58;;;;;;;41.00;39.00;;;25.20;92.00;;;;;;5033282;28;20483;-52
2023/09/08 09:25:26;;;;;;;41.67;39.67;;;25.20;91.90;;;;;;5033284;28;20467;-53
2023/09/08 09:27:56;;;;;;;40.80;38.70;;;25.20;92.10;;;;;;5033540;28;20503;-54
2023/09/08 09:30:23;;;;;;;42.73;40.73;;;25.20;92.00;;;;;;5033281;28;20965;-51
2023/09/08 09:33:02;;;;;;;41.63;39.63;;;25.20;92.00;;;;;;5033160;28;20953;-53
2023/09/08 09:35:43;;;;;;;40.13;38.23;;;25.20;92.00;;;;;;5033035;28;20836;-52
2023/09/08 09:38:10;;;;;;;41.47;39.40;;;25.20;92.00;;;;;;5032990;28;20955;-51
2023/09/08 09:40:37;;;;;;;40.77;38.87;;;25.20;92.10;;;;;;5033236;28;20861;-50
2023/09/08 09:43:07;;;;;;;39.47;37.37;;;25.20;92.10;;;;;;5032788;28;20469;-56
2023/09/08 09:45:34;;;;;;;41.70;39.80;;;25.30;92.10;;;;;;5024376;28;20453;-53
2023/09/08 09:48:03;;;;;;;41.57;39.60;;;25.20;92.20;;;;;;5032911;28;20496;-53
2023/09/08 09:50:32;;;;;;;41.27;39.27;;;25.30;92.20;;;;;;5032839;28;20441;-50
2023/09/08 09:53:01;;;;;;;41.77;39.43;;;25.20;92.20;;;;;;5032734;28;20452;-54
2023/09/08 09:55:29;;;;;;;43.43;41.47;;;25.30;92.30;;;;;;5032809;28;20477;-51
2023/09/08 09:58:00;;;;;;;46.33;44.23;;;25.30;92.30;;;;;;5032878;28;20489;-53
2023/09/08 10:00:29;;;;;;;45.53;43.43;;;25.30;92.30;;;;;;5032611;28;20449;-51
2023/09/08 10:02:56;;;;;;;43.93;41.93;;;25.30;92.30;;;;;;5032660;28;20930;-52
2023/09/08 10:05:25;;;;;;;44.70;42.60;;;25.30;92.30;;;;;;5032599;28;20476;-54
2023/09/08 10:07:52;;;;;;;42.80;40.70;;;25.30;92.30;;;;;;5032569;28;20473;-53
2023/09/08 10:10:21;;;;;;;44.10;42.10;;;25.30;92.30;;;;;;5032762;28;20472;-52
2023/09/08 10:12:54;;;;;;;44.43;42.43;;;25.30;92.40;;;;;;5032333;28;20443;-51
2023/09/08 10:15:23;;;;;;;42.83;40.83;;;25.30;92.40;;;;;;5032303;28;20469;-54
2023/09/08 10:17:56;;;;;;;44.10;42.00;;;25.30;92.40;;;;;;5032262;28;20445;-52
2023/09/08 10:20:24;;;;;;;43.73;41.63;;;25.30;92.40;;;;;;5032424;28;20878;-52
2023/09/08 10:22:55;;;;;;;43.00;40.80;;;25.30;92.40;;;;;;5032055;28;20524;-51
2023/09/08 10:25:25;;;;;;;42.07;39.93;;;25.30;92.40;;;;;;5032218;28;20836;-51
2023/09/08 10:27:53;;;;;;;40.83;38.73;;;25.40;92.50;;;;;;5032285;28;20476;-54
2023/09/08 10:30:21;;;;;;;42.13;40.03;;;25.40;92.40;;;;;;5032088;28;20503;-54
2023/09/08 10:32:50;;;;;;;45.90;43.77;;;25.40;92.40;;;;;;5031992;28;20445;-51
2023/09/08 10:35:19;;;;;;;45.20;43.00;;;25.40;92.40;;;;;;5031829;28;20443;-55
2023/09/08 10:37:46;;;;;;;45.13;42.67;;;25.40;92.40;;;;;;5031907;28;20468;-51
2023/09/08 10:40:24;;;;;;;42.10;40.10;;;25.40;92.40;;;;;;5031878;28;20479;-50
2023/09/08 10:43:07;;;;;;;45.07;42.77;;;25.40;92.40;;;;;;5031786;28;20452;-52
2023/09/08 10:45:34;;;;;;;43.23;41.10;;;25.40;92.40;;;;;;5031958;28;20868;-53
2023/09/08 10:48:01;;;;;;;44.33;42.03;;;25.40;92.40;;;;;;5031877;28;20488;-51
2023/09/08 10:50:33;;;;;;;43.20;41.20;;;25.40;92.40;;;;;;5031721;28;20445;-50
2023/09/08 10:53:14;;;;;;;45.63;43.53;;;25.40;92.50;;;;;;5031609;28;20437;-51
2023/09/08 10:55:43;;;;;;;43.87;41.77;;;25.40;92.40;;;;;;5024243;28;20476;-51
2023/09/08 10:58:11;;;;;;;44.07;41.97;;;25.40;92.40;;;;;;5031624;28;20468;-51
2023/09/08 11:00:46;;;;;;;43.53;41.33;;;25.40;92.40;;;;;;5023735;28;20488;-51
2023/09/08 11:03:14;;;;;;;43.43;41.33;;;25.50;92.50;;;;;;5031329;28;20480;-55
2023/09/08 11:05:43;;;;;;;44.73;42.53;;;25.50;92.50;;;;;;5031664;28;20447;-51
2023/09/08 11:08:10;;;;;;;43.03;40.83;;;25.40;92.40;;;;;;5031516;28;20461;-54
2023/09/08 11:10:40;;;;;;;41.70;39.60;;;25.50;92.50;;;;;;5023467;28;20456;-54
2023/09/08 11:13:07;;;;;;;42.57;40.47;;;25.50;92.50;;;;;;5031272;28;20448;-55
2023/09/08 11:15:34;;;;;;;42.77;40.77;;;25.50;92.40;;;;;;5031342;28;20477;-56
2023/09/08 11:18:07;;;;;;;41.10;39.07;;;25.50;92.40;;;;;;5031149;28;20504;-52
2023/09/08 11:20:35;;;;;;;44.83;42.63;;;25.50;92.40;;;;;;5031391;28;20879;-52
2023/09/08 11:23:04;;;;;;;44.13;42.13;;;25.50;92.40;;;;;;5031270;28;20473;-50
2023/09/08 11:25:33;;;;;;;44.50;42.40;;;25.50;92.30;;;;;;5031319;28;20445;-51
2023/09/08 11:28:00;;;;;;;44.00;41.90;;;25.50;92.30;;;;;;5031127;28;20544;-54
2023/09/08 11:30:27;;;;;;;44.57;42.37;;;25.50;92.40;;;;;;5031303;28;20445;-52
2023/09/08 11:32:55;;;;;;;46.77;44.47;;;25.60;92.30;;;;;;5031112;28;20448;-55
2023/09/08 11:35:22;;;;;;;43.73;41.63;;;25.50;92.30;;;;;;5031079;28;20447;-55
2023/09/08 11:37:51;;;;;;;45.80;43.60;;;25.60;92.40;;;;;;5031060;28;20509;-54
2023/09/08 11:40:21;;;;;;;42.23;40.23;;;25.60;92.30;;;;;;5031032;28;20444;-54
2023/09/08 11:42:48;;;;;;;44.90;42.77;;;25.60;92.30;;;;;;5030972;28;20450;-50
2023/09/08 11:45:17;;;;;;;45.47;43.33;;;25.60;92.30;;;;;;5031025;28;20476;-51
2023/09/08 11:47:45;;;;;;;44.47;42.37;;;25.60;92.30;;;;;;5030980;28;20437;-55
2023/09/08 11:50:15;;;;;;;47.03;44.67;;;25.60;92.40;;;;;;5031162;28;20472;-54
2023/09/08 11:52:44;;;;;;;46.33;44.13;;;25.60;92.30;;;;;;5023319;28;20807;-53
2023/09/08 11:55:12;;;;;;;46.87;44.67;;;25.70;92.40;;;;;;5031054;28;20502;-52
2023/09/08 11:57:41;;;;;;;42.80;40.33;;;25.70;92.30;;;;;;5030926;28;20646;-51
2023/09/08 12:00:12;;;;;;;41.87;39.77;;;25.70;92.30;;;;;;5031071;28;20441;-51
2023/09/08 12:02:39;;;;;;;47.60;45.30;;;25.70;92.30;;;;;;5022792;28;20488;-50
2023/09/08 12:05:06;;;;;;;45.13;42.93;;;25.70;92.20;;;;;;5030965;28;20448;-52
2023/09/08 12:07:33;;;;;;;46.67;44.40;;;25.70;92.20;;;;;;5032576;28;20465;-54
2023/09/08 12:10:09;;;;;;;44.77;42.63;;;25.70;92.20;;;;;;5034770;28;20500;-52
2023/09/08 12:12:43;;;;;;;43.00;40.90;;;25.70;92.20;;;;;;5034456;28;20495;-53
2023/09/08 12:15:10;;;;;;;44.23;41.93;;;25.80;92.20;;;;;;5034862;28;20436;-55
2023/09/08 12:17:48;;;;;;;45.47;43.27;;;25.80;92.20;;;;;;5034446;28;20574;-53
2023/09/08 12:20:16;;;;;;;46.37;44.07;;;25.80;92.20;;;;;;5034549;28;20440;-54
2023/09/08 12:22:49;;;;;;;46.93;44.63;;;25.80;92.20;;;;;;5034322;28;20440;-52
2023/09/08 12:25:17;;;;;;;47.73;45.37;;;25.80;92.20;;;;;;5034512;28;20437;-52
2023/09/08 12:27:46;;;;;;;44.30;42.20;;;25.80;92.20;;;;;;5034329;28;20429;-51
2023/09/08 12:30:18;;;;;;;48.50;46.00;;;25.90;92.20;;;;;;5034395;28;20469;-51
2023/09/08 12:32:47;;;;;;;46.20;44.00;;;25.90;92.20;;;;;;5026851;28;20448;-50